KFUL

Fullerton Municipal Airport

Fullerton, California, USA
METAR KFUL 231353Z AUTO 00000KT 10SM CLR 06/03 A3016 RMK AO2 SLP212 T00610033
Observed Flight Rules
Feb-23 @ 13:53 UTC (47 minutes ago) Visual Flight Rules
Wind Visibility Clouds
Calm 10 miles
  • Clear skies
Temperatures Readings
Current 6°C / 43°F
Dewpoint 3°C / 37°F
Humidity 81%
Altimeter 30.16" Hg
Pressure 1021.2 hPa
Elevation 35
METAR KFUL 231353Z AUTO 00000KT 10SM CLR 06/03 A3016 RMK AO2 SLP212 T00610033
Observed Flight Rules
Feb-23 @ 13:53 UTC
(47 minutes ago)
VFR
Wind Visibility
Calm 10 miles
Clouds
  • Clear skies
Temperature Dewpoint
6°C / 43°F 3°C / 37°F
Humidity Altimeter Pressure
81% 30.16" Hg 1021.2 hPa